Wye Mills, MD

8:14 AM EST on January 26, 2015 (GMT -0500)
APRSWXNET Preston MD US | Change Station
CLOSE
Current Station
Personal Weather Station
Location: Denton, MD
Elevation: 19 ft
Nearby Weather Stations
Active Advisory: Winter Weather Advisory Active Notice: Public Information Statement

Elev 19 ft 38.81 °N, 75.88 °W | Updated 39 minutes ago

Rain
Rain
35 °F
Feels Like 30 °F
N
6
Wind Variable Wind from ENE
Gusts 14.0 mph

Today
High -- | Low -- °F
--% Chance of Precip.
Yesterday
High -- | Low -- °F
Precip. -- in
7:14 AM 5:17 PM
Waxing Crescent, 43% visible
Pressure 29.86 in
Visibility 5.0 miles
Clouds Overcast 1300 ft
Windchill 30 °F
Dew Point 35 °F
Humidity 100%
Rainfall 0.00 in
Snow Depth Not available.
UV 0 out of 12
Pollen .10 out of 12
Air Quality Not available.
Flu Activity Not available.
METAR KESN 261250Z 08010G18KT 5SM -SN OVC013 02/02 A2986

More Conditions Fewer Conditions

Pressure 29.86 in
Visibility 5.0 miles
Clouds Overcast 1300 ft
Windchill 30 °F
Dew Point 35 °F
Humidity 100%
Rainfall 0.00 in
Snow Depth Not available.
UV 0 out of 12
Pollen .10 out of 12
Air Quality Not available.
Flu Activity Not available.
METAR KESN 261250Z 08010G18KT 5SM -SN OVC013 02/02 A2986

More Conditions Fewer Conditions

10-Day Weather Forecast

Almanac

Astronomy

Jan. 26, 2015 Rise Set
Actual Time
Civil Twilight
Nautical Twilight
Astronomical Twilight
Moon
Length of Visible Light
Length of Day
Tomorrow will be .
, % of the Moon is Illuminated

Today's Extremes

State Highs State Lows

Community

WunderPhotos

Upload Photos

1,790,192 photos uploaded!

WunderBlogs® & News

Nearby

Air Quality

  Air Quality AQ Index Pollutant
Not available.

Snow Depth

Station Depth Elevation

Earthquake Activity

City Distance Mag. Time & Date
Minimum magnitude displayed is 2.5.

Coastal Water Temperatures

Place Temperature

Nearby Weather Stations